sensor_id;sensor_type;location;lat;lon;timestamp;pressure;altitude;pressure_sealevel;temperature
49785;BMP280;35679;38.732;-121.358;2023-11-21T00:02:10;101945.38;;;19.20
49785;BMP280;35679;38.732;-121.358;2023-11-21T00:05:00;101944.56;;;19.20
49785;BMP280;35679;38.732;-121.358;2023-11-21T00:07:49;101944.56;;;19.20
49785;BMP280;35679;38.732;-121.358;2023-11-21T00:10:40;101949.06;;;19.19
49785;BMP280;35679;38.732;-121.358;2023-11-21T00:13:29;101939.84;;;19.22
49785;BMP280;35679;38.732;-121.358;2023-11-21T00:16:18;101942.16;;;19.25
49785;BMP280;35679;38.732;-121.358;2023-11-21T00:19:08;101940.47;;;19.24
49785;BMP280;35679;38.732;-121.358;2023-11-21T00:21:58;101942.50;;;19.22
49785;BMP280;35679;38.732;-121.358;2023-11-21T00:24:47;101948.91;;;19.21
49785;BMP280;35679;38.732;-121.358;2023-11-21T00:27:36;101944.56;;;19.20
49785;BMP280;35679;38.732;-121.358;2023-11-21T00:30:26;101942.72;;;19.20
49785;BMP280;35679;38.732;-121.358;2023-11-21T00:33:15;101935.69;;;19.19
49785;BMP280;35679;38.732;-121.358;2023-11-21T00:36:06;101949.94;;;19.20
49785;BMP280;35679;38.732;-121.358;2023-11-21T00:38:58;101940.25;;;19.19
49785;BMP280;35679;38.732;-121.358;2023-11-21T00:41:48;101944.94;;;19.17
49785;BMP280;35679;38.732;-121.358;2023-11-21T00:44:38;101946.59;;;19.18
49785;BMP280;35679;38.732;-121.358;2023-11-21T00:47:28;101954.63;;;19.18
49785;BMP280;35679;38.732;-121.358;2023-11-21T00:50:18;101955.66;;;19.17
49785;BMP280;35679;38.732;-121.358;2023-11-21T00:53:08;101953.81;;;19.17
49785;BMP280;35679;38.732;-121.358;2023-11-21T00:55:57;101955.66;;;19.17
49785;BMP280;35679;38.732;-121.358;2023-11-21T00:58:48;101945.97;;;19.16
49785;BMP280;35679;38.732;-121.358;2023-11-21T01:01:41;101952.34;;;19.15
49785;BMP280;35679;38.732;-121.358;2023-11-21T01:04:30;101952.34;;;19.15
49785;BMP280;35679;38.732;-121.358;2023-11-21T01:07:23;101957.72;;;19.15
49785;BMP280;35679;38.732;-121.358;2023-11-21T01:10:13;101955.19;;;19.13
49785;BMP280;35679;38.732;-121.358;2023-11-21T01:13:03;101954.38;;;19.13
49785;BMP280;35679;38.732;-121.358;2023-11-21T01:15:54;101956.25;;;19.12
49785;BMP280;35679;38.732;-121.358;2023-11-21T01:18:43;101956.41;;;19.11
49785;BMP280;35679;38.732;-121.358;2023-11-21T01:21:32;101950.25;;;19.10
49785;BMP280;35679;38.732;-121.358;2023-11-21T01:24:23;101947.78;;;19.09
49785;BMP280;35679;38.732;-121.358;2023-11-21T01:27:13;101952.28;;;19.08
49785;BMP280;35679;38.732;-121.358;2023-11-21T01:30:05;101957.81;;;19.07
49785;BMP280;35679;38.732;-121.358;2023-11-21T01:32:57;101955.16;;;19.07
49785;BMP280;35679;38.732;-121.358;2023-11-21T01:35:47;101958.81;;;19.06
49785;BMP280;35679;38.732;-121.358;2023-11-21T01:38:36;101959.00;;;19.05
49785;BMP280;35679;38.732;-121.358;2023-11-21T01:41:27;101954.66;;;19.04
49785;BMP280;35679;38.732;-121.358;2023-11-21T01:44:20;101953.03;;;19.03
49785;BMP280;35679;38.732;-121.358;2023-11-21T01:47:11;101954.06;;;19.02
49785;BMP280;35679;38.732;-121.358;2023-11-21T01:50:02;101962.06;;;19.02
49785;BMP280;35679;38.732;-121.358;2023-11-21T01:52:53;101951.56;;;19.00
49785;BMP280;35679;38.732;-121.358;2023-11-21T01:55:45;101960.63;;;18.99
49785;BMP280;35679;38.732;-121.358;2023-11-21T01:58:35;101951.94;;;18.97
49785;BMP280;35679;38.732;-121.358;2023-11-21T02:01:25;101946.59;;;18.97
49785;BMP280;35679;38.732;-121.358;2023-11-21T02:04:15;101945.97;;;18.95
49785;BMP280;35679;38.732;-121.358;2023-11-21T02:07:05;101947.81;;;18.95
49785;BMP280;35679;38.732;-121.358;2023-11-21T02:09:55;101949.66;;;18.94
49785;BMP280;35679;38.732;-121.358;2023-11-21T02:12:44;101952.50;;;18.93
49785;BMP280;35679;38.732;-121.358;2023-11-21T02:15:34;101944.88;;;18.90
49785;BMP280;35679;38.732;-121.358;2023-11-21T02:18:25;101955.38;;;18.91
49785;BMP280;35679;38.732;-121.358;2023-11-21T02:21:15;101952.91;;;18.90
49785;BMP280;35679;38.732;-121.358;2023-11-21T02:24:05;101946.72;;;18.89
49785;BMP280;35679;38.732;-121.358;2023-11-21T02:26:55;101944.22;;;18.88
49785;BMP280;35679;38.732;-121.358;2023-11-21T02:29:45;101942.75;;;18.85
49785;BMP280;35679;38.732;-121.358;2023-11-21T02:32:34;101941.13;;;18.84
49785;BMP280;35679;38.732;-121.358;2023-11-21T02:35:35;101944.81;;;18.83
49785;BMP280;35679;38.732;-121.358;2023-11-21T02:38:25;101952.00;;;18.83
49785;BMP280;35679;38.732;-121.358;2023-11-21T02:41:15;101954.06;;;18.81
49785;BMP280;35679;38.732;-121.358;2023-11-21T02:44:05;101953.19;;;18.80
49785;BMP280;35679;38.732;-121.358;2023-11-21T02:46:55;101964.09;;;18.79
49785;BMP280;35679;38.732;-121.358;2023-11-21T02:49:47;101955.25;;;18.78
49785;BMP280;35679;38.732;-121.358;2023-11-21T02:52:37;101965.31;;;18.76
49785;BMP280;35679;38.732;-121.358;2023-11-21T02:55:27;101958.28;;;18.75
49785;BMP280;35679;38.732;-121.358;2023-11-21T02:58:17;101952.13;;;18.75
49785;BMP280;35679;38.732;-121.358;2023-11-21T03:01:07;101960.34;;;18.73
49785;BMP280;35679;38.732;-121.358;2023-11-21T03:03:57;101968.56;;;18.72
49785;BMP280;35679;38.732;-121.358;2023-11-21T03:06:47;101967.91;;;18.70
49785;BMP280;35679;38.732;-121.358;2023-11-21T03:09:36;101964.22;;;18.71
49785;BMP280;35679;38.732;-121.358;2023-11-21T03:12:26;101960.91;;;18.69
49785;BMP280;35679;38.732;-121.358;2023-11-21T03:15:15;101958.63;;;18.66
49785;BMP280;35679;38.732;-121.358;2023-11-21T03:18:05;101959.63;;;18.65
49785;BMP280;35679;38.732;-121.358;2023-11-21T03:20:54;101959.84;;;18.63
49785;BMP280;35679;38.732;-121.358;2023-11-21T03:23:44;101949.31;;;18.62
49785;BMP280;35679;38.732;-121.358;2023-11-21T03:26:33;101956.50;;;18.61
49785;BMP280;35679;38.732;-121.358;2023-11-21T03:29:23;101964.53;;;18.61
49785;BMP280;35679;38.732;-121.358;2023-11-21T03:32:13;101970.88;;;18.60
49785;BMP280;35679;38.732;-121.358;2023-11-21T03:35:03;101969.41;;;18.58
49785;BMP280;35679;38.732;-121.358;2023-11-21T03:37:53;101980.31;;;18.56
49785;BMP280;35679;38.732;-121.358;2023-11-21T03:40:43;101987.50;;;18.56
49785;BMP280;35679;38.732;-121.358;2023-11-21T03:43:32;101985.84;;;18.55
49785;BMP280;35679;38.732;-121.358;2023-11-21T03:46:22;101985.19;;;18.53
49785;BMP280;35679;38.732;-121.358;2023-11-21T03:49:11;101992.41;;;18.52
49785;BMP280;35679;38.732;-121.358;2023-11-21T03:52:01;101996.09;;;18.51
49785;BMP280;35679;38.732;-121.358;2023-11-21T03:54:52;102000.78;;;18.49
49785;BMP280;35679;38.732;-121.358;2023-11-21T03:57:41;102004.50;;;18.48
49785;BMP280;35679;38.732;-121.358;2023-11-21T04:00:34;102001.81;;;18.48
49785;BMP280;35679;38.732;-121.358;2023-11-21T04:03:23;102000.31;;;18.46
49785;BMP280;35679;38.732;-121.358;2023-11-21T04:06:12;102012.06;;;18.45
49785;BMP280;35679;38.732;-121.358;2023-11-21T04:09:02;102013.25;;;18.42
49785;BMP280;35679;38.732;-121.358;2023-11-21T04:11:53;102013.25;;;18.42
49785;BMP280;35679;38.732;-121.358;2023-11-21T04:14:42;102022.47;;;18.40
49785;BMP280;35679;38.732;-121.358;2023-11-21T04:17:31;102015.47;;;18.39
49785;BMP280;35679;38.732;-121.358;2023-11-21T04:20:21;102025.31;;;18.39
49785;BMP280;35679;38.732;-121.358;2023-11-21T04:23:12;102028.16;;;18.37
49785;BMP280;35679;38.732;-121.358;2023-11-21T04:26:02;102031.03;;;18.36
49785;BMP280;35679;38.732;-121.358;2023-11-21T04:28:51;102032.22;;;18.33
49785;BMP280;35679;38.732;-121.358;2023-11-21T04:31:41;102035.09;;;18.32
49785;BMP280;35679;38.732;-121.358;2023-11-21T04:34:30;102035.91;;;18.32
49785;BMP280;35679;38.732;-121.358;2023-11-21T04:37:19;102044.13;;;18.31
49785;BMP280;35679;38.732;-121.358;2023-11-21T04:40:09;102039.16;;;18.28
49785;BMP280;35679;38.732;-121.358;2023-11-21T04:42:59;102056.00;;;18.28
49785;BMP280;35679;38.732;-121.358;2023-11-21T04:45:48;102067.72;;;18.27
49785;BMP280;35679;38.732;-121.358;2023-11-21T04:48:38;102059.88;;;18.26
49785;BMP280;35679;38.732;-121.358;2023-11-21T04:51:28;102062.75;;;18.24
49785;BMP280;35679;38.732;-121.358;2023-11-21T04:54:17;102072.59;;;18.24
49785;BMP280;35679;38.732;-121.358;2023-11-21T04:57:07;102069.28;;;18.22
49785;BMP280;35679;38.732;-121.358;2023-11-21T04:59:56;102070.28;;;18.21
49785;BMP280;35679;38.732;-121.358;2023-11-21T05:02:45;102071.31;;;18.20
49785;BMP280;35679;38.732;-121.358;2023-11-21T05:05:35;102083.00;;;18.19
49785;BMP280;35679;38.732;-121.358;2023-11-21T05:08:25;102088.34;;;18.19
49785;BMP280;35679;38.732;-121.358;2023-11-21T05:11:27;102077.00;;;18.17
49785;BMP280;35679;38.732;-121.358;2023-11-21T05:14:17;102088.69;;;18.16
49785;BMP280;35679;38.732;-121.358;2023-11-21T05:17:07;102090.69;;;18.14
49785;BMP280;35679;38.732;-121.358;2023-11-21T05:19:57;102096.22;;;18.12
49785;BMP280;35679;38.732;-121.358;2023-11-21T05:22:47;102090.22;;;18.10
49785;BMP280;35679;38.732;-121.358;2023-11-21T05:25:37;102093.75;;;18.11
49785;BMP280;35679;38.732;-121.358;2023-11-21T05:28:28;102094.75;;;18.10
49785;BMP280;35679;38.732;-121.358;2023-11-21T05:31:17;102096.59;;;18.09
49785;BMP280;35679;38.732;-121.358;2023-11-21T05:34:06;102097.81;;;18.07
49785;BMP280;35679;38.732;-121.358;2023-11-21T05:36:56;102095.28;;;18.05
49785;BMP280;35679;38.732;-121.358;2023-11-21T05:39:47;102104.34;;;18.04
49785;BMP280;35679;38.732;-121.358;2023-11-21T05:42:36;102107.16;;;18.03
49785;BMP280;35679;38.732;-121.358;2023-11-21T05:45:29;102110.88;;;18.02
49785;BMP280;35679;38.732;-121.358;2023-11-21T05:48:19;102105.69;;;18.00
49785;BMP280;35679;38.732;-121.358;2023-11-21T05:51:09;102112.03;;;17.99
49785;BMP280;35679;38.732;-121.358;2023-11-21T05:54:01;102104.22;;;17.98
49785;BMP280;35679;38.732;-121.358;2023-11-21T05:56:50;102115.91;;;17.97
49785;BMP280;35679;38.732;-121.358;2023-11-21T05:59:40;102114.28;;;17.96
49785;BMP280;35679;38.732;-121.358;2023-11-21T06:02:29;102108.28;;;17.94
49785;BMP280;35679;38.732;-121.358;2023-11-21T06:05:21;102113.59;;;17.94
49785;BMP280;35679;38.732;-121.358;2023-11-21T06:08:12;102116.47;;;17.92
49785;BMP280;35679;38.732;-121.358;2023-11-21T06:11:02;102110.28;;;17.92
49785;BMP280;35679;38.732;-121.358;2023-11-21T06:13:51;102111.31;;;17.91
49785;BMP280;35679;38.732;-121.358;2023-11-21T06:16:42;102111.66;;;17.88
49785;BMP280;35679;38.732;-121.358;2023-11-21T06:19:31;102122.34;;;17.88
49785;BMP280;35679;38.732;-121.358;2023-11-21T06:22:21;102115.50;;;17.85
49785;BMP280;35679;38.732;-121.358;2023-11-21T06:25:11;102126.19;;;17.85
49785;BMP280;35679;38.732;-121.358;2023-11-21T06:28:01;102120.03;;;17.85
49785;BMP280;35679;38.732;-121.358;2023-11-21T06:30:51;102118.56;;;17.82
49785;BMP280;35679;38.732;-121.358;2023-11-21T06:33:41;102127.41;;;17.83
49785;BMP280;35679;38.732;-121.358;2023-11-21T06:36:31;102119.09;;;17.78
49785;BMP280;35679;38.732;-121.358;2023-11-21T06:39:21;102127.94;;;17.78
49785;BMP280;35679;38.732;-121.358;2023-11-21T06:42:11;102117.44;;;17.77
49785;BMP280;35679;38.732;-121.358;2023-11-21T06:45:00;102124.63;;;17.76
49785;BMP280;35679;38.732;-121.358;2023-11-21T06:47:52;102114.13;;;17.75
49785;BMP280;35679;38.732;-121.358;2023-11-21T06:50:42;102121.47;;;17.73
49785;BMP280;35679;38.732;-121.358;2023-11-21T06:53:31;102122.28;;;17.73
49785;BMP280;35679;38.732;-121.358;2023-11-21T06:56:23;102121.66;;;17.72
49785;BMP280;35679;38.732;-121.358;2023-11-21T06:59:12;102119.81;;;17.72
49785;BMP280;35679;38.732;-121.358;2023-11-21T07:02:02;102123.47;;;17.71
49785;BMP280;35679;38.732;-121.358;2023-11-21T07:04:51;102124.66;;;17.69
49785;BMP280;35679;38.732;-121.358;2023-11-21T07:07:41;102128.38;;;17.68
49785;BMP280;35679;38.732;-121.358;2023-11-21T07:10:30;102129.38;;;17.67
49785;BMP280;35679;38.732;-121.358;2023-11-21T07:13:20;102122.38;;;17.66
49785;BMP280;35679;38.732;-121.358;2023-11-21T07:16:10;102122.56;;;17.64
49785;BMP280;35679;38.732;-121.358;2023-11-21T07:18:59;102130.56;;;17.64
49785;BMP280;35679;38.732;-121.358;2023-11-21T07:21:49;102136.09;;;17.63
49785;BMP280;35679;38.732;-121.358;2023-11-21T07:24:40;102125.41;;;17.63
49785;BMP280;35679;38.732;-121.358;2023-11-21T07:27:29;102122.06;;;17.61
49785;BMP280;35679;38.732;-121.358;2023-11-21T07:30:19;102128.22;;;17.61
49785;BMP280;35679;38.732;-121.358;2023-11-21T07:33:08;102131.09;;;17.60
49785;BMP280;35679;38.732;-121.358;2023-11-21T07:35:57;102135.78;;;17.58
49785;BMP280;35679;38.732;-121.358;2023-11-21T07:38:47;102133.28;;;17.56
49785;BMP280;35679;38.732;-121.358;2023-11-21T07:41:37;102136.78;;;17.57
49785;BMP280;35679;38.732;-121.358;2023-11-21T07:44:28;102130.59;;;17.56
49785;BMP280;35679;38.732;-121.358;2023-11-21T07:47:18;102132.63;;;17.54
49785;BMP280;35679;38.732;-121.358;2023-11-21T07:50:08;102135.47;;;17.53
49785;BMP280;35679;38.732;-121.358;2023-11-21T07:52:58;102139.31;;;17.50
49785;BMP280;35679;38.732;-121.358;2023-11-21T07:55:48;102141.16;;;17.50
49785;BMP280;35679;38.732;-121.358;2023-11-21T07:58:37;102148.50;;;17.48
49785;BMP280;35679;38.732;-121.358;2023-11-21T08:01:27;102150.38;;;17.47
49785;BMP280;35679;38.732;-121.358;2023-11-21T08:04:16;102146.03;;;17.46
49785;BMP280;35679;38.732;-121.358;2023-11-21T08:07:06;102148.69;;;17.46
49785;BMP280;35679;38.732;-121.358;2023-11-21T08:09:55;102153.22;;;17.46
49785;BMP280;35679;38.732;-121.358;2023-11-21T08:12:45;102154.41;;;17.43
49785;BMP280;35679;38.732;-121.358;2023-11-21T08:15:35;102151.06;;;17.41
49785;BMP280;35679;38.732;-121.358;2023-11-21T08:18:26;102151.25;;;17.40
49785;BMP280;35679;38.732;-121.358;2023-11-21T08:21:16;102152.06;;;17.40
49785;BMP280;35679;38.732;-121.358;2023-11-21T08:24:06;102149.59;;;17.39
49785;BMP280;35679;38.732;-121.358;2023-11-21T08:26:59;102151.44;;;17.38
49785;BMP280;35679;38.732;-121.358;2023-11-21T08:29:48;102145.44;;;17.36
49785;BMP280;35679;38.732;-121.358;2023-11-21T08:32:38;102150.75;;;17.36
49785;BMP280;35679;38.732;-121.358;2023-11-21T08:35:28;102154.09;;;17.38
49785;BMP280;35679;38.732;-121.358;2023-11-21T08:38:18;102152.63;;;17.36
49785;BMP280;35679;38.732;-121.358;2023-11-21T08:41:07;102152.78;;;17.34
49785;BMP280;35679;38.732;-121.358;2023-11-21T08:43:57;102149.47;;;17.32
49785;BMP280;35679;38.732;-121.358;2023-11-21T08:46:46;102157.66;;;17.31
49785;BMP280;35679;38.732;-121.358;2023-11-21T08:49:36;102166.47;;;17.31
49785;BMP280;35679;38.732;-121.358;2023-11-21T08:52:26;102160.47;;;17.29
49785;BMP280;35679;38.732;-121.358;2023-11-21T08:55:16;102155.97;;;17.30
49785;BMP280;35679;38.732;-121.358;2023-11-21T08:58:05;102153.50;;;17.28
49785;BMP280;35679;38.732;-121.358;2023-11-21T09:00:54;102140.16;;;17.28
49785;BMP280;35679;38.732;-121.358;2023-11-21T09:03:44;102139.50;;;17.26
49785;BMP280;35679;38.732;-121.358;2023-11-21T09:06:33;102134.97;;;17.27
49785;BMP280;35679;38.732;-121.358;2023-11-21T09:09:24;102133.34;;;17.26
49785;BMP280;35679;38.732;-121.358;2023-11-21T09:12:13;102136.13;;;17.24
49785;BMP280;35679;38.732;-121.358;2023-11-21T09:15:07;102137.81;;;17.25
49785;BMP280;35679;38.732;-121.358;2023-11-21T09:17:58;102143.16;;;17.25
49785;BMP280;35679;38.732;-121.358;2023-11-21T09:20:48;102144.31;;;17.23
49785;BMP280;35679;38.732;-121.358;2023-11-21T09:23:37;102147.81;;;17.23
49785;BMP280;35679;38.732;-121.358;2023-11-21T09:26:26;102148.81;;;17.22
49785;BMP280;35679;38.732;-121.358;2023-11-21T09:29:15;102149.66;;;17.23
49785;BMP280;35679;38.732;-121.358;2023-11-21T09:32:06;102155.16;;;17.21
49785;BMP280;35679;38.732;-121.358;2023-11-21T09:34:57;102155.16;;;17.21
49785;BMP280;35679;38.732;-121.358;2023-11-21T09:37:47;102160.50;;;17.21
49785;BMP280;35679;38.732;-121.358;2023-11-21T09:40:37;102178.34;;;17.21
49785;BMP280;35679;38.732;-121.358;2023-11-21T09:43:28;102177.50;;;17.20
49785;BMP280;35679;38.732;-121.358;2023-11-21T09:46:20;102185.69;;;17.19
49785;BMP280;35679;38.732;-121.358;2023-11-21T09:49:11;102187.53;;;17.18
49785;BMP280;35679;38.732;-121.358;2023-11-21T09:52:02;102185.69;;;17.19
49785;BMP280;35679;38.732;-121.358;2023-11-21T09:54:53;102185.69;;;17.19
49785;BMP280;35679;38.732;-121.358;2023-11-21T09:57:43;102201.03;;;17.17
49785;BMP280;35679;38.732;-121.358;2023-11-21T10:00:32;102194.88;;;17.16
49785;BMP280;35679;38.732;-121.358;2023-11-21T10:03:22;102195.88;;;17.15
49785;BMP280;35679;38.732;-121.358;2023-11-21T10:06:13;102200.38;;;17.15
49785;BMP280;35679;38.732;-121.358;2023-11-21T10:09:06;102202.19;;;17.14
49785;BMP280;35679;38.732;-121.358;2023-11-21T10:12:00;102213.91;;;17.13
49785;BMP280;35679;38.732;-121.358;2023-11-21T10:14:51;102220.88;;;17.14
49785;BMP280;35679;38.732;-121.358;2023-11-21T10:17:42;102218.38;;;17.13
49785;BMP280;35679;38.732;-121.358;2023-11-21T10:20:34;102218.56;;;17.11
49785;BMP280;35679;38.732;-121.358;2023-11-21T10:23:23;102216.72;;;17.12
49785;BMP280;35679;38.732;-121.358;2023-11-21T10:26:13;102211.38;;;17.12
49785;BMP280;35679;38.732;-121.358;2023-11-21T10:29:17;102214.22;;;17.10
49785;BMP280;35679;38.732;-121.358;2023-11-21T10:32:08;102210.88;;;17.08
49785;BMP280;35679;38.732;-121.358;2023-11-21T10:34:57;102216.22;;;17.08
49785;BMP280;35679;38.732;-121.358;2023-11-21T10:37:59;102221.56;;;17.08
49785;BMP280;35679;38.732;-121.358;2023-11-21T10:40:50;102232.41;;;17.07
49785;BMP280;35679;38.732;-121.358;2023-11-21T10:43:40;102216.59;;;17.06
49785;BMP280;35679;38.732;-121.358;2023-11-21T10:46:29;102221.09;;;17.05
49785;BMP280;35679;38.732;-121.358;2023-11-21T10:49:23;102225.59;;;17.05
49785;BMP280;35679;38.732;-121.358;2023-11-21T10:52:19;102221.25;;;17.04
49785;BMP280;35679;38.732;-121.358;2023-11-21T10:55:19;102223.09;;;17.03
49785;BMP280;35679;38.732;-121.358;2023-11-21T10:58:10;102229.25;;;17.04
49785;BMP280;35679;38.732;-121.358;2023-11-21T11:01:06;102225.94;;;17.02
49785;BMP280;35679;38.732;-121.358;2023-11-21T11:03:56;102233.28;;;17.00
49785;BMP280;35679;38.732;-121.358;2023-11-21T11:06:51;102234.94;;;17.01
49785;BMP280;35679;38.732;-121.358;2023-11-21T11:09:43;102235.13;;;16.99
49785;BMP280;35679;38.732;-121.358;2023-11-21T11:12:34;102239.59;;;16.99
49785;BMP280;35679;38.732;-121.358;2023-11-21T11:15:25;102237.78;;;16.99
49785;BMP280;35679;38.732;-121.358;2023-11-21T11:18:19;102242.28;;;16.99
49785;BMP280;35679;38.732;-121.358;2023-11-21T11:33:59;102228.31;;;16.97
49785;BMP280;35679;38.732;-121.358;2023-11-21T11:37:17;102215.78;;;16.97
49785;BMP280;35679;38.732;-121.358;2023-11-21T11:40:07;102217.63;;;16.97
49785;BMP280;35679;38.732;-121.358;2023-11-21T11:43:01;102219.63;;;16.95
49785;BMP280;35679;38.732;-121.358;2023-11-21T11:46:03;102223.28;;;16.94
49785;BMP280;35679;38.732;-121.358;2023-11-21T11:49:03;102226.81;;;16.94
49785;BMP280;35679;38.732;-121.358;2023-11-21T11:55:26;102220.16;;;16.90
49785;BMP280;35679;38.732;-121.358;2023-11-21T11:58:19;102228.81;;;16.92
49785;BMP280;35679;38.732;-121.358;2023-11-21T12:01:08;102238.66;;;16.92
49785;BMP280;35679;38.732;-121.358;2023-11-21T12:07:20;102254.66;;;16.92
49785;BMP280;35679;38.732;-121.358;2023-11-21T12:10:18;102275.13;;;16.91
49785;BMP280;35679;38.732;-121.358;2023-11-21T12:13:09;102280.47;;;16.91
49785;BMP280;35679;38.732;-121.358;2023-11-21T12:15:58;102292.97;;;16.91
49785;BMP280;35679;38.732;-121.358;2023-11-21T12:18:48;102294.16;;;16.88
49785;BMP280;35679;38.732;-121.358;2023-11-21T12:21:37;102286.97;;;16.89
49785;BMP280;35679;38.732;-121.358;2023-11-21T12:24:27;102281.63;;;16.89
49785;BMP280;35679;38.732;-121.358;2023-11-21T12:27:18;102282.66;;;16.88
49785;BMP280;35679;38.732;-121.358;2023-11-21T12:30:08;102274.66;;;16.88
49785;BMP280;35679;38.732;-121.358;2023-11-21T12:33:04;102266.81;;;16.86
49785;BMP280;35679;38.732;-121.358;2023-11-21T12:35:56;102269.66;;;16.85
49785;BMP280;35679;38.732;-121.358;2023-11-21T12:38:46;102280.66;;;16.82
49785;BMP280;35679;38.732;-121.358;2023-11-21T12:41:35;102290.47;;;16.81
49785;BMP280;35679;38.732;-121.358;2023-11-21T12:44:25;102300.16;;;16.82
49785;BMP280;35679;38.732;-121.358;2023-11-21T12:47:17;102302.66;;;16.84
49785;BMP280;35679;38.732;-121.358;2023-11-21T12:50:07;102295.63;;;16.83
49785;BMP280;35679;38.732;-121.358;2023-11-21T12:53:05;102285.16;;;16.81
49785;BMP280;35679;38.732;-121.358;2023-11-21T12:55:56;102291.47;;;16.80
49785;BMP280;35679;38.732;-121.358;2023-11-21T12:58:46;102293.50;;;16.78
49785;BMP280;35679;38.732;-121.358;2023-11-21T13:01:36;102288.00;;;16.80
49785;BMP280;35679;38.732;-121.358;2023-11-21T13:04:31;102291.66;;;16.79
49785;BMP280;35679;38.732;-121.358;2023-11-21T13:07:20;102296.34;;;16.77
49785;BMP280;35679;38.732;-121.358;2023-11-21T13:10:11;102301.69;;;16.77
49785;BMP280;35679;38.732;-121.358;2023-11-21T13:13:02;102304.34;;;16.77
49785;BMP280;35679;38.732;-121.358;2023-11-21T13:15:54;102299.00;;;16.77
49785;BMP280;35679;38.732;-121.358;2023-11-21T13:18:46;102302.00;;;16.74
49785;BMP280;35679;38.732;-121.358;2023-11-21T13:21:36;102308.19;;;16.74
49785;BMP280;35679;38.732;-121.358;2023-11-21T13:24:25;102305.66;;;16.73
49785;BMP280;35679;38.732;-121.358;2023-11-21T13:27:15;102310.16;;;16.72
49785;BMP280;35679;38.732;-121.358;2023-11-21T13:30:04;102328.00;;;16.72
49785;BMP280;35679;38.732;-121.358;2023-11-21T13:32:57;102339.66;;;16.71
49785;BMP280;35679;38.732;-121.358;2023-11-21T13:35:50;102345.00;;;16.71
49785;BMP280;35679;38.732;-121.358;2023-11-21T13:38:40;102353.81;;;16.71
49785;BMP280;35679;38.732;-121.358;2023-11-21T13:41:34;102355.66;;;16.71
49785;BMP280;35679;38.732;-121.358;2023-11-21T13:44:27;102364.66;;;16.70
49785;BMP280;35679;38.732;-121.358;2023-11-21T13:47:23;102366.50;;;16.69
49785;BMP280;35679;38.732;-121.358;2023-11-21T13:50:18;102383.31;;;16.70
49785;BMP280;35679;38.732;-121.358;2023-11-21T13:53:15;102382.63;;;16.68
49785;BMP280;35679;38.732;-121.358;2023-11-21T13:56:11;102387.13;;;16.67
49785;BMP280;35679;38.732;-121.358;2023-11-21T13:59:02;102395.31;;;16.66
49785;BMP280;35679;38.732;-121.358;2023-11-21T14:02:11;102397.97;;;16.66
49785;BMP280;35679;38.732;-121.358;2023-11-21T14:05:07;102405.97;;;16.66
49785;BMP280;35679;38.732;-121.358;2023-11-21T14:07:58;102408.81;;;16.64
49785;BMP280;35679;38.732;-121.358;2023-11-21T14:10:57;102413.28;;;16.64
49785;BMP280;35679;38.732;-121.358;2023-11-21T14:13:48;102423.28;;;16.62
49785;BMP280;35679;38.732;-121.358;2023-11-21T14:16:38;102433.09;;;16.61
49785;BMP280;35679;38.732;-121.358;2023-11-21T14:19:27;102437.63;;;16.61
49785;BMP280;35679;38.732;-121.358;2023-11-21T14:22:22;102442.09;;;16.60
49785;BMP280;35679;38.732;-121.358;2023-11-21T14:25:15;102433.28;;;16.60
49785;BMP280;35679;38.732;-121.358;2023-11-21T14:28:06;102449.28;;;16.60
49785;BMP280;35679;38.732;-121.358;2023-11-21T14:30:55;102458.25;;;16.59
49785;BMP280;35679;38.732;-121.358;2023-11-21T14:33:45;102454.91;;;16.57
49785;BMP280;35679;38.732;-121.358;2023-11-21T14:36:35;102455.09;;;16.55
49785;BMP280;35679;38.732;-121.358;2023-11-21T14:39:25;102460.41;;;16.55
49785;BMP280;35679;38.732;-121.358;2023-11-21T14:42:18;102470.91;;;16.57
49785;BMP280;35679;38.732;-121.358;2023-11-21T14:45:13;102478.25;;;16.55
49785;BMP280;35679;38.732;-121.358;2023-11-21T14:48:08;102461.56;;;16.53
49785;BMP280;35679;38.732;-121.358;2023-11-21T14:51:04;102458.91;;;16.53
49785;BMP280;35679;38.732;-121.358;2023-11-21T14:53:54;102471.41;;;16.52
49785;BMP280;35679;38.732;-121.358;2023-11-21T14:56:46;102468.06;;;16.50
49785;BMP280;35679;38.732;-121.358;2023-11-21T14:59:35;102471.72;;;16.49
49785;BMP280;35679;38.732;-121.358;2023-11-21T15:02:24;102467.25;;;16.50
49785;BMP280;35679;38.732;-121.358;2023-11-21T15:05:32;102471.72;;;16.49
49785;BMP280;35679;38.732;-121.358;2023-11-21T15:08:24;102469.22;;;16.48
49785;BMP280;35679;38.732;-121.358;2023-11-21T15:11:20;102472.75;;;16.48
49785;BMP280;35679;38.732;-121.358;2023-11-21T15:14:14;102476.41;;;16.47
49785;BMP280;35679;38.732;-121.358;2023-11-21T15:17:09;102485.22;;;16.48
49785;BMP280;35679;38.732;-121.358;2023-11-21T15:20:01;102494.88;;;16.49
49785;BMP280;35679;38.732;-121.358;2023-11-21T15:22:51;102495.22;;;16.46
49785;BMP280;35679;38.732;-121.358;2023-11-21T15:25:41;102485.56;;;16.45
49785;BMP280;35679;38.732;-121.358;2023-11-21T15:28:30;102498.88;;;16.45
49785;BMP280;35679;38.732;-121.358;2023-11-21T15:31:21;102513.72;;;16.47
49785;BMP280;35679;38.732;-121.358;2023-11-21T15:34:16;102511.22;;;16.46
49785;BMP280;35679;38.732;-121.358;2023-11-21T15:37:07;102511.34;;;16.44
49785;BMP280;35679;38.732;-121.358;2023-11-21T15:40:00;102528.19;;;16.45
49785;BMP280;35679;38.732;-121.358;2023-11-21T15:42:49;102534.50;;;16.44
49785;BMP280;35679;38.732;-121.358;2023-11-21T15:45:39;102541.53;;;16.45
49785;BMP280;35679;38.732;-121.358;2023-11-21T15:48:28;102539.03;;;16.43
49785;BMP280;35679;38.732;-121.358;2023-11-21T15:51:19;102537.19;;;16.44